sensor_id;sensor_type;location;lat;lon;timestamp;temperature;humidity
49777;DHT22;35673;51.482;7.436;2023-04-24T00:00:18;11.70;87.30
49777;DHT22;35673;51.482;7.436;2023-04-24T00:02:44;11.70;87.30
49777;DHT22;35673;51.482;7.436;2023-04-24T00:05:16;11.70;87.50
49777;DHT22;35673;51.482;7.436;2023-04-24T00:07:42;11.70;87.70
49777;DHT22;35673;51.482;7.436;2023-04-24T00:10:08;11.70;88.00
49777;DHT22;35673;51.482;7.436;2023-04-24T00:12:34;11.70;88.10
49777;DHT22;35673;51.482;7.436;2023-04-24T00:15:00;11.70;88.10
49777;DHT22;35673;51.482;7.436;2023-04-24T00:17:25;11.70;88.00
49777;DHT22;35673;51.482;7.436;2023-04-24T00:19:51;11.70;87.60
49777;DHT22;35673;51.482;7.436;2023-04-24T00:22:26;11.70;87.40
49777;DHT22;35673;51.482;7.436;2023-04-24T00:24:52;11.60;87.00
49777;DHT22;35673;51.482;7.436;2023-04-24T00:27:17;11.50;87.40
49777;DHT22;35673;51.482;7.436;2023-04-24T00:29:44;11.50;86.90
49777;DHT22;35673;51.482;7.436;2023-04-24T00:32:10;11.40;87.60
49777;DHT22;35673;51.482;7.436;2023-04-24T00:34:35;11.40;87.40
49777;DHT22;35673;51.482;7.436;2023-04-24T00:37:01;11.30;87.50
49777;DHT22;35673;51.482;7.436;2023-04-24T00:39:26;11.30;87.90
49777;DHT22;35673;51.482;7.436;2023-04-24T00:41:52;11.30;87.10
49777;DHT22;35673;51.482;7.436;2023-04-24T00:44:18;11.30;87.60
49777;DHT22;35673;51.482;7.436;2023-04-24T00:46:43;11.20;88.20
49777;DHT22;35673;51.482;7.436;2023-04-24T00:49:09;11.20;87.40
49777;DHT22;35673;51.482;7.436;2023-04-24T00:51:35;11.20;87.80
49777;DHT22;35673;51.482;7.436;2023-04-24T00:54:01;11.10;88.30
49777;DHT22;35673;51.482;7.436;2023-04-24T00:56:31;11.10;88.00
49777;DHT22;35673;51.482;7.436;2023-04-24T00:59:00;11.10;88.30
49777;DHT22;35673;51.482;7.436;2023-04-24T01:01:26;11.10;88.80
49777;DHT22;35673;51.482;7.436;2023-04-24T01:03:52;11.10;88.30
49777;DHT22;35673;51.482;7.436;2023-04-24T01:06:18;11.10;88.80
49777;DHT22;35673;51.482;7.436;2023-04-24T01:08:44;11.00;88.40
49777;DHT22;35673;51.482;7.436;2023-04-24T01:11:10;11.00;88.50
49777;DHT22;35673;51.482;7.436;2023-04-24T01:13:36;11.00;88.10
49777;DHT22;35673;51.482;7.436;2023-04-24T01:16:02;11.00;87.60
49777;DHT22;35673;51.482;7.436;2023-04-24T01:18:27;11.00;88.10
49777;DHT22;35673;51.482;7.436;2023-04-24T01:20:53;10.90;87.20
49777;DHT22;35673;51.482;7.436;2023-04-24T01:23:21;10.90;87.20
49777;DHT22;35673;51.482;7.436;2023-04-24T01:25:46;10.90;86.60
49777;DHT22;35673;51.482;7.436;2023-04-24T01:28:13;10.90;86.60
49777;DHT22;35673;51.482;7.436;2023-04-24T01:30:39;10.90;86.50
49777;DHT22;35673;51.482;7.436;2023-04-24T01:33:05;11.00;86.40
49777;DHT22;35673;51.482;7.436;2023-04-24T01:35:30;11.00;85.90
49777;DHT22;35673;51.482;7.436;2023-04-24T01:37:56;11.00;86.20
49777;DHT22;35673;51.482;7.436;2023-04-24T01:40:22;11.00;86.60
49777;DHT22;35673;51.482;7.436;2023-04-24T01:42:47;11.00;86.20
49777;DHT22;35673;51.482;7.436;2023-04-24T01:45:13;11.00;86.70
49777;DHT22;35673;51.482;7.436;2023-04-24T01:47:38;11.00;86.70
49777;DHT22;35673;51.482;7.436;2023-04-24T01:50:04;11.00;86.50
49777;DHT22;35673;51.482;7.436;2023-04-24T01:52:30;11.00;87.00
49777;DHT22;35673;51.482;7.436;2023-04-24T01:55:03;10.90;86.80
49777;DHT22;35673;51.482;7.436;2023-04-24T01:57:30;10.90;86.90
49777;DHT22;35673;51.482;7.436;2023-04-24T01:59:56;10.90;87.00
49777;DHT22;35673;51.482;7.436;2023-04-24T02:02:22;10.80;87.10
49777;DHT22;35673;51.482;7.436;2023-04-24T02:04:49;10.80;87.60
49777;DHT22;35673;51.482;7.436;2023-04-24T02:07:15;10.80;87.60
49777;DHT22;35673;51.482;7.436;2023-04-24T02:09:41;10.80;87.60
49777;DHT22;35673;51.482;7.436;2023-04-24T02:12:07;10.80;88.50
49777;DHT22;35673;51.482;7.436;2023-04-24T02:14:33;10.80;88.50
49777;DHT22;35673;51.482;7.436;2023-04-24T02:16:58;10.80;88.50
49777;DHT22;35673;51.482;7.436;2023-04-24T02:19:24;10.80;88.00
49777;DHT22;35673;51.482;7.436;2023-04-24T02:21:50;10.70;87.90
49777;DHT22;35673;51.482;7.436;2023-04-24T02:24:15;10.70;88.70
49777;DHT22;35673;51.482;7.436;2023-04-24T02:26:41;10.70;88.60
49777;DHT22;35673;51.482;7.436;2023-04-24T02:29:06;10.60;89.20
49777;DHT22;35673;51.482;7.436;2023-04-24T02:31:32;10.60;89.30
49777;DHT22;35673;51.482;7.436;2023-04-24T02:33:57;10.50;89.60
49777;DHT22;35673;51.482;7.436;2023-04-24T02:36:23;10.40;90.20
49777;DHT22;35673;51.482;7.436;2023-04-24T02:38:49;10.30;90.10
49777;DHT22;35673;51.482;7.436;2023-04-24T02:41:15;10.30;90.50
49777;DHT22;35673;51.482;7.436;2023-04-24T02:43:40;10.20;90.50
49777;DHT22;35673;51.482;7.436;2023-04-24T02:46:06;10.20;90.30
49777;DHT22;35673;51.482;7.436;2023-04-24T02:48:31;10.20;90.40
49777;DHT22;35673;51.482;7.436;2023-04-24T02:50:57;10.10;90.80
49777;DHT22;35673;51.482;7.436;2023-04-24T02:53:22;10.00;91.10
49777;DHT22;35673;51.482;7.436;2023-04-24T02:55:48;10.00;91.10
49777;DHT22;35673;51.482;7.436;2023-04-24T02:58:14;10.00;91.50
49777;DHT22;35673;51.482;7.436;2023-04-24T03:00:39;9.90;91.80
49777;DHT22;35673;51.482;7.436;2023-04-24T03:03:05;9.90;92.50
49777;DHT22;35673;51.482;7.436;2023-04-24T03:05:30;9.80;92.30
49777;DHT22;35673;51.482;7.436;2023-04-24T03:07:56;9.80;92.90
49777;DHT22;35673;51.482;7.436;2023-04-24T03:10:22;9.80;93.50
49777;DHT22;35673;51.482;7.436;2023-04-24T03:12:48;9.90;93.00
49777;DHT22;35673;51.482;7.436;2023-04-24T03:15:15;9.90;93.80
49777;DHT22;35673;51.482;7.436;2023-04-24T03:17:41;9.90;93.10
49777;DHT22;35673;51.482;7.436;2023-04-24T03:20:07;9.80;93.30
49777;DHT22;35673;51.482;7.436;2023-04-24T03:22:33;9.90;93.30
49777;DHT22;35673;51.482;7.436;2023-04-24T03:24:59;9.90;94.10
49777;DHT22;35673;51.482;7.436;2023-04-24T03:27:25;9.80;94.40
49777;DHT22;35673;51.482;7.436;2023-04-24T03:29:50;9.80;94.00
49777;DHT22;35673;51.482;7.436;2023-04-24T03:32:21;9.80;95.10
49777;DHT22;35673;51.482;7.436;2023-04-24T03:34:48;9.90;94.60
49777;DHT22;35673;51.482;7.436;2023-04-24T03:37:14;9.90;94.10
49777;DHT22;35673;51.482;7.436;2023-04-24T03:39:40;9.80;94.80
49777;DHT22;35673;51.482;7.436;2023-04-24T03:42:05;9.80;95.10
49777;DHT22;35673;51.482;7.436;2023-04-24T03:44:31;9.90;96.00
49777;DHT22;35673;51.482;7.436;2023-04-24T03:46:57;9.80;95.40
49777;DHT22;35673;51.482;7.436;2023-04-24T03:49:23;9.90;95.60
49777;DHT22;35673;51.482;7.436;2023-04-24T03:51:48;9.90;94.70
49777;DHT22;35673;51.482;7.436;2023-04-24T03:54:14;9.90;95.30
49777;DHT22;35673;51.482;7.436;2023-04-24T03:56:39;9.90;95.40
49777;DHT22;35673;51.482;7.436;2023-04-24T03:59:05;9.90;96.10
49777;DHT22;35673;51.482;7.436;2023-04-24T04:01:31;9.90;96.20
49777;DHT22;35673;51.482;7.436;2023-04-24T04:03:56;9.90;95.50
49777;DHT22;35673;51.482;7.436;2023-04-24T04:06:22;9.90;95.70
49777;DHT22;35673;51.482;7.436;2023-04-24T04:08:47;9.90;95.80
49777;DHT22;35673;51.482;7.436;2023-04-24T04:11:13;10.00;95.50
49777;DHT22;35673;51.482;7.436;2023-04-24T04:13:38;9.90;96.90
49777;DHT22;35673;51.482;7.436;2023-04-24T04:16:04;9.90;95.30
49777;DHT22;35673;51.482;7.436;2023-04-24T04:18:30;9.90;95.50
49777;DHT22;35673;51.482;7.436;2023-04-24T04:20:55;10.00;95.10
49777;DHT22;35673;51.482;7.436;2023-04-24T04:23:22;10.00;94.50
49777;DHT22;35673;51.482;7.436;2023-04-24T04:25:48;9.90;95.40
49777;DHT22;35673;51.482;7.436;2023-04-24T04:28:13;10.00;96.00
49777;DHT22;35673;51.482;7.436;2023-04-24T04:30:39;10.00;94.80
49777;DHT22;35673;51.482;7.436;2023-04-24T04:33:05;10.00;95.50
49777;DHT22;35673;51.482;7.436;2023-04-24T04:35:30;9.90;96.30
49777;DHT22;35673;51.482;7.436;2023-04-24T04:37:56;10.00;95.40
49777;DHT22;35673;51.482;7.436;2023-04-24T04:40:24;10.00;95.60
49777;DHT22;35673;51.482;7.436;2023-04-24T04:42:49;10.00;95.20
49777;DHT22;35673;51.482;7.436;2023-04-24T04:45:18;10.00;94.40
49777;DHT22;35673;51.482;7.436;2023-04-24T04:47:43;10.00;94.80
49777;DHT22;35673;51.482;7.436;2023-04-24T04:50:09;10.00;95.10
49777;DHT22;35673;51.482;7.436;2023-04-24T04:52:35;10.00;94.70
49777;DHT22;35673;51.482;7.436;2023-04-24T04:55:01;10.00;94.70
49777;DHT22;35673;51.482;7.436;2023-04-24T04:57:27;10.00;94.50
49777;DHT22;35673;51.482;7.436;2023-04-24T04:59:52;10.00;94.90
49777;DHT22;35673;51.482;7.436;2023-04-24T05:02:18;10.00;94.90
49777;DHT22;35673;51.482;7.436;2023-04-24T05:04:43;10.00;94.40
49777;DHT22;35673;51.482;7.436;2023-04-24T05:07:10;10.00;94.70
49777;DHT22;35673;51.482;7.436;2023-04-24T05:09:36;10.00;94.80
49777;DHT22;35673;51.482;7.436;2023-04-24T05:12:01;10.00;94.50
49777;DHT22;35673;51.482;7.436;2023-04-24T05:14:27;10.00;94.80
49777;DHT22;35673;51.482;7.436;2023-04-24T05:16:52;10.00;94.70
49777;DHT22;35673;51.482;7.436;2023-04-24T05:19:18;10.00;94.50
49777;DHT22;35673;51.482;7.436;2023-04-24T05:21:44;10.10;94.60
49777;DHT22;35673;51.482;7.436;2023-04-24T05:24:09;10.10;94.00
49777;DHT22;35673;51.482;7.436;2023-04-24T05:26:35;10.00;94.70
49777;DHT22;35673;51.482;7.436;2023-04-24T05:29:01;10.00;94.70
49777;DHT22;35673;51.482;7.436;2023-04-24T05:31:26;10.00;93.70
49777;DHT22;35673;51.482;7.436;2023-04-24T05:33:52;10.00;93.80
49777;DHT22;35673;51.482;7.436;2023-04-24T05:36:17;10.10;94.00
49777;DHT22;35673;51.482;7.436;2023-04-24T05:38:43;10.20;93.40
49777;DHT22;35673;51.482;7.436;2023-04-24T05:41:08;10.30;92.80
49777;DHT22;35673;51.482;7.436;2023-04-24T05:43:34;10.20;92.70
49777;DHT22;35673;51.482;7.436;2023-04-24T05:45:59;10.20;93.10
49777;DHT22;35673;51.482;7.436;2023-04-24T05:48:25;10.20;93.20
49777;DHT22;35673;51.482;7.436;2023-04-24T05:50:51;10.10;93.40
49777;DHT22;35673;51.482;7.436;2023-04-24T05:53:18;10.00;94.10
49777;DHT22;35673;51.482;7.436;2023-04-24T05:55:43;10.00;94.60
49777;DHT22;35673;51.482;7.436;2023-04-24T05:58:09;9.90;96.30
49777;DHT22;35673;51.482;7.436;2023-04-24T06:00:34;9.80;97.40
49777;DHT22;35673;51.482;7.436;2023-04-24T06:03:00;9.80;99.40
49777;DHT22;35673;51.482;7.436;2023-04-24T06:05:26;9.70;99.90
49777;DHT22;35673;51.482;7.436;2023-04-24T06:07:51;9.60;99.90
49777;DHT22;35673;51.482;7.436;2023-04-24T06:10:17;9.60;99.90
49777;DHT22;35673;51.482;7.436;2023-04-24T06:12:42;9.60;99.90
49777;DHT22;35673;51.482;7.436;2023-04-24T06:15:08;9.70;99.90
49777;DHT22;35673;51.482;7.436;2023-04-24T06:17:34;9.70;99.90
49777;DHT22;35673;51.482;7.436;2023-04-24T06:19:59;9.60;99.90
49777;DHT22;35673;51.482;7.436;2023-04-24T06:22:25;9.60;99.90
49777;DHT22;35673;51.482;7.436;2023-04-24T06:24:50;9.60;99.90
49777;DHT22;35673;51.482;7.436;2023-04-24T06:27:16;9.60;99.90
49777;DHT22;35673;51.482;7.436;2023-04-24T06:29:41;9.60;99.90
49777;DHT22;35673;51.482;7.436;2023-04-24T06:32:07;9.60;99.90
49777;DHT22;35673;51.482;7.436;2023-04-24T06:34:33;9.70;99.90
49777;DHT22;35673;51.482;7.436;2023-04-24T06:36:59;9.70;99.90
49777;DHT22;35673;51.482;7.436;2023-04-24T06:39:25;9.70;99.90
49777;DHT22;35673;51.482;7.436;2023-04-24T06:41:50;9.70;99.80
49777;DHT22;35673;51.482;7.436;2023-04-24T06:44:16;9.70;99.90
49777;DHT22;35673;51.482;7.436;2023-04-24T06:46:42;9.60;99.90
49777;DHT22;35673;51.482;7.436;2023-04-24T06:49:07;9.60;99.90
49777;DHT22;35673;51.482;7.436;2023-04-24T06:51:33;9.70;99.90
49777;DHT22;35673;51.482;7.436;2023-04-24T06:53:58;9.60;99.90
49777;DHT22;35673;51.482;7.436;2023-04-24T06:56:25;9.70;99.90
49777;DHT22;35673;51.482;7.436;2023-04-24T06:58:51;9.70;99.90
49777;DHT22;35673;51.482;7.436;2023-04-24T07:01:16;9.70;99.80
49777;DHT22;35673;51.482;7.436;2023-04-24T07:03:42;9.80;99.90
49777;DHT22;35673;51.482;7.436;2023-04-24T07:06:08;9.80;99.90
49777;DHT22;35673;51.482;7.436;2023-04-24T07:08:35;10.00;99.90
49777;DHT22;35673;51.482;7.436;2023-04-24T07:11:01;10.10;99.90
49777;DHT22;35673;51.482;7.436;2023-04-24T07:13:27;10.10;99.90
49777;DHT22;35673;51.482;7.436;2023-04-24T07:15:53;10.20;99.90
49777;DHT22;35673;51.482;7.436;2023-04-24T07:18:20;10.00;99.90
49777;DHT22;35673;51.482;7.436;2023-04-24T07:20:46;9.90;99.90
49777;DHT22;35673;51.482;7.436;2023-04-24T07:23:12;10.00;99.90
49777;DHT22;35673;51.482;7.436;2023-04-24T07:25:37;10.00;99.90
49777;DHT22;35673;51.482;7.436;2023-04-24T07:28:03;9.90;99.90
49777;DHT22;35673;51.482;7.436;2023-04-24T07:30:30;10.00;99.90
49777;DHT22;35673;51.482;7.436;2023-04-24T07:32:55;10.10;99.90
49777;DHT22;35673;51.482;7.436;2023-04-24T07:35:21;10.10;99.90
49777;DHT22;35673;51.482;7.436;2023-04-24T07:37:47;9.90;99.90
49777;DHT22;35673;51.482;7.436;2023-04-24T07:40:13;9.80;99.90
49777;DHT22;35673;51.482;7.436;2023-04-24T07:42:38;9.60;99.90
49777;DHT22;35673;51.482;7.436;2023-04-24T07:45:04;9.50;99.90
49777;DHT22;35673;51.482;7.436;2023-04-24T07:47:30;9.50;99.90
49777;DHT22;35673;51.482;7.436;2023-04-24T07:49:56;9.40;99.90
49777;DHT22;35673;51.482;7.436;2023-04-24T07:52:22;9.50;99.90
49777;DHT22;35673;51.482;7.436;2023-04-24T07:54:47;9.50;99.90
49777;DHT22;35673;51.482;7.436;2023-04-24T07:57:13;9.50;99.90
49777;DHT22;35673;51.482;7.436;2023-04-24T07:59:39;9.50;99.90
49777;DHT22;35673;51.482;7.436;2023-04-24T08:02:04;9.60;99.90
49777;DHT22;35673;51.482;7.436;2023-04-24T08:04:31;9.60;99.90
49777;DHT22;35673;51.482;7.436;2023-04-24T08:06:57;9.70;99.90
49777;DHT22;35673;51.482;7.436;2023-04-24T08:09:22;9.70;99.90
49777;DHT22;35673;51.482;7.436;2023-04-24T08:11:48;9.80;99.90
49777;DHT22;35673;51.482;7.436;2023-04-24T08:14:13;9.80;99.90
49777;DHT22;35673;51.482;7.436;2023-04-24T08:16:40;9.70;99.90
49777;DHT22;35673;51.482;7.436;2023-04-24T08:19:05;9.50;99.90
49777;DHT22;35673;51.482;7.436;2023-04-24T08:21:31;9.40;99.90
49777;DHT22;35673;51.482;7.436;2023-04-24T08:23:57;9.30;99.90
49777;DHT22;35673;51.482;7.436;2023-04-24T08:26:22;9.20;99.90
49777;DHT22;35673;51.482;7.436;2023-04-24T08:28:48;9.00;99.90
49777;DHT22;35673;51.482;7.436;2023-04-24T08:31:13;8.90;99.90
49777;DHT22;35673;51.482;7.436;2023-04-24T08:33:39;8.80;99.90
49777;DHT22;35673;51.482;7.436;2023-04-24T08:36:06;8.90;99.90
49777;DHT22;35673;51.482;7.436;2023-04-24T08:38:32;9.10;99.90
49777;DHT22;35673;51.482;7.436;2023-04-24T08:40:58;9.10;99.90
49777;DHT22;35673;51.482;7.436;2023-04-24T08:43:24;9.10;99.90
49777;DHT22;35673;51.482;7.436;2023-04-24T08:45:51;9.10;99.90
49777;DHT22;35673;51.482;7.436;2023-04-24T08:48:16;9.10;99.90
49777;DHT22;35673;51.482;7.436;2023-04-24T08:50:42;9.00;99.90
49777;DHT22;35673;51.482;7.436;2023-04-24T08:53:10;8.90;99.90
49777;DHT22;35673;51.482;7.436;2023-04-24T08:55:35;8.80;99.90
49777;DHT22;35673;51.482;7.436;2023-04-24T08:58:01;8.70;99.90
49777;DHT22;35673;51.482;7.436;2023-04-24T09:00:27;8.70;99.90
49777;DHT22;35673;51.482;7.436;2023-04-24T09:02:53;8.70;99.90
49777;DHT22;35673;51.482;7.436;2023-04-24T09:05:18;8.60;99.90
49777;DHT22;35673;51.482;7.436;2023-04-24T09:07:52;8.60;99.90
49777;DHT22;35673;51.482;7.436;2023-04-24T09:10:19;8.50;99.90
49777;DHT22;35673;51.482;7.436;2023-04-24T09:12:45;8.30;99.90
49777;DHT22;35673;51.482;7.436;2023-04-24T09:15:11;8.10;99.90
49777;DHT22;35673;51.482;7.436;2023-04-24T09:17:37;8.10;99.90
49777;DHT22;35673;51.482;7.436;2023-04-24T09:20:03;8.10;99.90
49777;DHT22;35673;51.482;7.436;2023-04-24T09:22:32;8.10;99.90
49777;DHT22;35673;51.482;7.436;2023-04-24T09:25:04;8.00;99.90
49777;DHT22;35673;51.482;7.436;2023-04-24T09:27:31;8.00;99.90
49777;DHT22;35673;51.482;7.436;2023-04-24T09:29:57;8.00;99.90
49777;DHT22;35673;51.482;7.436;2023-04-24T09:32:23;8.00;99.90
49777;DHT22;35673;51.482;7.436;2023-04-24T09:35:12;8.10;99.90
49777;DHT22;35673;51.482;7.436;2023-04-24T09:37:46;8.10;99.90
49777;DHT22;35673;51.482;7.436;2023-04-24T09:40:13;8.10;99.90
49777;DHT22;35673;51.482;7.436;2023-04-24T09:42:39;8.10;99.90
49777;DHT22;35673;51.482;7.436;2023-04-24T09:45:08;8.10;99.90
49777;DHT22;35673;51.482;7.436;2023-04-24T09:47:37;8.10;99.90
49777;DHT22;35673;51.482;7.436;2023-04-24T09:50:10;8.10;99.90
49777;DHT22;35673;51.482;7.436;2023-04-24T09:52:36;8.20;99.90
49777;DHT22;35673;51.482;7.436;2023-04-24T09:55:10;8.20;99.90
49777;DHT22;35673;51.482;7.436;2023-04-24T09:57:36;8.20;99.90
49777;DHT22;35673;51.482;7.436;2023-04-24T10:00:11;8.20;99.90
49777;DHT22;35673;51.482;7.436;2023-04-24T10:02:37;8.30;99.90
49777;DHT22;35673;51.482;7.436;2023-04-24T10:05:03;8.30;99.90
49777;DHT22;35673;51.482;7.436;2023-04-24T10:07:29;8.30;99.90
49777;DHT22;35673;51.482;7.436;2023-04-24T10:09:54;8.30;99.90
49777;DHT22;35673;51.482;7.436;2023-04-24T10:12:20;8.30;99.90
49777;DHT22;35673;51.482;7.436;2023-04-24T10:14:46;8.30;99.90
49777;DHT22;35673;51.482;7.436;2023-04-24T10:17:12;8.20;99.90
49777;DHT22;35673;51.482;7.436;2023-04-24T10:19:37;8.30;99.90
49777;DHT22;35673;51.482;7.436;2023-04-24T10:22:03;8.20;99.90
49777;DHT22;35673;51.482;7.436;2023-04-24T10:24:29;8.20;99.90
49777;DHT22;35673;51.482;7.436;2023-04-24T10:26:55;8.10;99.90
49777;DHT22;35673;51.482;7.436;2023-04-24T10:29:24;8.10;99.90
49777;DHT22;35673;51.482;7.436;2023-04-24T10:31:49;8.10;99.90
49777;DHT22;35673;51.482;7.436;2023-04-24T10:34:16;8.10;99.90
49777;DHT22;35673;51.482;7.436;2023-04-24T10:36:43;8.00;99.90
49777;DHT22;35673;51.482;7.436;2023-04-24T10:39:11;7.90;99.90
49777;DHT22;35673;51.482;7.436;2023-04-24T10:41:37;7.90;99.90
49777;DHT22;35673;51.482;7.436;2023-04-24T10:46:32;7.90;99.90
49777;DHT22;35673;51.482;7.436;2023-04-24T10:48:57;7.90;99.90
49777;DHT22;35673;51.482;7.436;2023-04-24T10:51:24;7.90;99.90
49777;DHT22;35673;51.482;7.436;2023-04-24T10:53:50;8.10;99.90
49777;DHT22;35673;51.482;7.436;2023-04-24T10:56:16;8.20;99.90
49777;DHT22;35673;51.482;7.436;2023-04-24T10:58:43;8.30;99.90
49777;DHT22;35673;51.482;7.436;2023-04-24T11:03:55;8.50;99.90
49777;DHT22;35673;51.482;7.436;2023-04-24T11:06:31;8.60;99.90
49777;DHT22;35673;51.482;7.436;2023-04-24T11:09:15;8.60;99.90
49777;DHT22;35673;51.482;7.436;2023-04-24T11:11:45;8.60;99.90
49777;DHT22;35673;51.482;7.436;2023-04-24T11:14:10;8.80;99.90
49777;DHT22;35673;51.482;7.436;2023-04-24T11:16:47;8.90;99.90
49777;DHT22;35673;51.482;7.436;2023-04-24T11:21:42;8.90;99.90
49777;DHT22;35673;51.482;7.436;2023-04-24T11:26:59;9.00;99.90
49777;DHT22;35673;51.482;7.436;2023-04-24T11:29:42;9.10;99.90
49777;DHT22;35673;51.482;7.436;2023-04-24T11:32:30;9.20;99.90
49777;DHT22;35673;51.482;7.436;2023-04-24T11:35:05;9.10;99.90
49777;DHT22;35673;51.482;7.436;2023-04-24T11:40:00;9.20;99.90
49777;DHT22;35673;51.482;7.436;2023-04-24T11:42:26;9.20;99.90
49777;DHT22;35673;51.482;7.436;2023-04-24T11:44:53;9.10;99.90
49777;DHT22;35673;51.482;7.436;2023-04-24T11:47:27;9.10;99.90
49777;DHT22;35673;51.482;7.436;2023-04-24T11:49:53;9.30;99.90
49777;DHT22;35673;51.482;7.436;2023-04-24T11:52:18;9.50;99.90
49777;DHT22;35673;51.482;7.436;2023-04-24T11:54:48;9.70;99.90
49777;DHT22;35673;51.482;7.436;2023-04-24T11:57:14;9.90;99.90
49777;DHT22;35673;51.482;7.436;2023-04-24T11:59:40;10.20;99.90
49777;DHT22;35673;51.482;7.436;2023-04-24T12:02:05;10.50;99.90
49777;DHT22;35673;51.482;7.436;2023-04-24T12:04:38;10.50;99.90
49777;DHT22;35673;51.482;7.436;2023-04-24T12:07:04;10.40;99.90
49777;DHT22;35673;51.482;7.436;2023-04-24T12:12:08;10.00;99.90
49777;DHT22;35673;51.482;7.436;2023-04-24T12:14:41;9.70;99.90
49777;DHT22;35673;51.482;7.436;2023-04-24T12:17:07;9.50;99.90
49777;DHT22;35673;51.482;7.436;2023-04-24T12:19:32;9.40;99.90
49777;DHT22;35673;51.482;7.436;2023-04-24T12:22:02;9.30;99.90
49777;DHT22;35673;51.482;7.436;2023-04-24T12:24:28;9.20;99.90
49777;DHT22;35673;51.482;7.436;2023-04-24T12:26:53;9.20;99.90
49777;DHT22;35673;51.482;7.436;2023-04-24T12:29:20;9.30;99.90
49777;DHT22;35673;51.482;7.436;2023-04-24T12:31:46;9.40;99.90
49777;DHT22;35673;51.482;7.436;2023-04-24T12:34:21;9.80;99.90
49777;DHT22;35673;51.482;7.436;2023-04-24T12:36:47;10.50;99.90
49777;DHT22;35673;51.482;7.436;2023-04-24T12:39:16;11.10;99.90
49777;DHT22;35673;51.482;7.436;2023-04-24T12:41:55;11.90;99.90
49777;DHT22;35673;51.482;7.436;2023-04-24T12:44:28;12.40;99.90
49777;DHT22;35673;51.482;7.436;2023-04-24T12:46:54;12.50;98.40
49777;DHT22;35673;51.482;7.436;2023-04-24T12:49:19;12.00;99.90
49777;DHT22;35673;51.482;7.436;2023-04-24T12:51:45;12.00;99.90
49777;DHT22;35673;51.482;7.436;2023-04-24T12:54:10;11.70;99.90
49777;DHT22;35673;51.482;7.436;2023-04-24T12:56:37;11.30;99.90
49777;DHT22;35673;51.482;7.436;2023-04-24T12:59:04;11.10;99.90
49777;DHT22;35673;51.482;7.436;2023-04-24T13:01:30;10.80;99.90
49777;DHT22;35673;51.482;7.436;2023-04-24T13:03:56;10.60;99.90
49777;DHT22;35673;51.482;7.436;2023-04-24T13:06:21;10.40;99.90
49777;DHT22;35673;51.482;7.436;2023-04-24T13:08:47;10.30;99.90
49777;DHT22;35673;51.482;7.436;2023-04-24T13:11:13;10.20;99.90
49777;DHT22;35673;51.482;7.436;2023-04-24T13:13:39;10.10;99.90
49777;DHT22;35673;51.482;7.436;2023-04-24T13:16:05;10.10;99.90
49777;DHT22;35673;51.482;7.436;2023-04-24T13:18:30;10.20;99.90
49777;DHT22;35673;51.482;7.436;2023-04-24T13:20:56;10.40;99.90
49777;DHT22;35673;51.482;7.436;2023-04-24T13:23:22;10.40;99.70
49777;DHT22;35673;51.482;7.436;2023-04-24T13:25:48;10.60;99.90
49777;DHT22;35673;51.482;7.436;2023-04-24T13:28:13;11.00;99.90
49777;DHT22;35673;51.482;7.436;2023-04-24T13:30:39;11.50;94.20
49777;DHT22;35673;51.482;7.436;2023-04-24T13:33:05;11.70;93.10
49777;DHT22;35673;51.482;7.436;2023-04-24T13:35:30;11.60;92.20
49777;DHT22;35673;51.482;7.436;2023-04-24T13:37:57;11.40;93.30
49777;DHT22;35673;51.482;7.436;2023-04-24T13:40:22;11.50;94.90
49777;DHT22;35673;51.482;7.436;2023-04-24T13:42:48;11.40;92.50
49777;DHT22;35673;51.482;7.436;2023-04-24T13:45:13;11.40;93.50
49777;DHT22;35673;51.482;7.436;2023-04-24T13:47:39;11.20;92.40
49777;DHT22;35673;51.482;7.436;2023-04-24T13:50:09;11.10;93.00
49777;DHT22;35673;51.482;7.436;2023-04-24T13:52:35;10.90;92.80
49777;DHT22;35673;51.482;7.436;2023-04-24T13:55:00;11.00;92.50
49777;DHT22;35673;51.482;7.436;2023-04-24T13:57:26;11.00;93.00
49777;DHT22;35673;51.482;7.436;2023-04-24T13:59:53;11.00;93.60
49777;DHT22;35673;51.482;7.436;2023-04-24T14:02:20;11.00;92.70
49777;DHT22;35673;51.482;7.436;2023-04-24T14:04:46;10.90;92.40
49777;DHT22;35673;51.482;7.436;2023-04-24T14:07:13;11.00;90.50
49777;DHT22;35673;51.482;7.436;2023-04-24T14:09:38;11.10;90.60
49777;DHT22;35673;51.482;7.436;2023-04-24T14:12:04;11.30;90.80
49777;DHT22;35673;51.482;7.436;2023-04-24T14:14:30;11.20;90.00
49777;DHT22;35673;51.482;7.436;2023-04-24T14:16:56;11.10;90.50
49777;DHT22;35673;51.482;7.436;2023-04-24T14:19:22;11.10;90.70
49777;DHT22;35673;51.482;7.436;2023-04-24T14:21:47;11.10;90.90
49777;DHT22;35673;51.482;7.436;2023-04-24T14:24:13;11.10;90.80
49777;DHT22;35673;51.482;7.436;2023-04-24T14:26:38;11.60;88.90
49777;DHT22;35673;51.482;7.436;2023-04-24T14:29:04;11.90;87.50
49777;DHT22;35673;51.482;7.436;2023-04-24T14:31:30;12.00;87.10
49777;DHT22;35673;51.482;7.436;2023-04-24T14:33:56;12.10;86.10
49777;DHT22;35673;51.482;7.436;2023-04-24T14:36:21;12.10;85.30
49777;DHT22;35673;51.482;7.436;2023-04-24T14:38:47;12.10;83.70
49777;DHT22;35673;51.482;7.436;2023-04-24T14:41:12;12.10;84.80
49777;DHT22;35673;51.482;7.436;2023-04-24T14:43:38;12.10;85.30
49777;DHT22;35673;51.482;7.436;2023-04-24T14:46:04;12.00;84.50
49777;DHT22;35673;51.482;7.436;2023-04-24T14:48:29;11.90;86.20
49777;DHT22;35673;51.482;7.436;2023-04-24T14:50:55;11.80;86.00
49777;DHT22;35673;51.482;7.436;2023-04-24T14:53:21;11.60;85.90
49777;DHT22;35673;51.482;7.436;2023-04-24T14:55:46;11.40;84.80
49777;DHT22;35673;51.482;7.436;2023-04-24T14:58:12;11.30;85.70
49777;DHT22;35673;51.482;7.436;2023-04-24T15:00:37;11.20;86.30
49777;DHT22;35673;51.482;7.436;2023-04-24T15:03:03;11.10;84.40
49777;DHT22;35673;51.482;7.436;2023-04-24T15:05:29;10.90;84.70
49777;DHT22;35673;51.482;7.436;2023-04-24T15:07:55;10.90;86.00
49777;DHT22;35673;51.482;7.436;2023-04-24T15:10:21;10.80;86.10
49777;DHT22;35673;51.482;7.436;2023-04-24T15:12:48;10.70;86.60
49777;DHT22;35673;51.482;7.436;2023-04-24T15:15:13;10.60;86.80
49777;DHT22;35673;51.482;7.436;2023-04-24T15:17:39;10.60;88.70
49777;DHT22;35673;51.482;7.436;2023-04-24T15:20:05;10.60;89.40
49777;DHT22;35673;51.482;7.436;2023-04-24T15:22:31;10.60;90.50
49777;DHT22;35673;51.482;7.436;2023-04-24T15:24:57;10.60;90.80
49777;DHT22;35673;51.482;7.436;2023-04-24T15:27:22;10.50;91.10
49777;DHT22;35673;51.482;7.436;2023-04-24T15:29:48;10.50;92.20
49777;DHT22;35673;51.482;7.436;2023-04-24T15:32:13;10.30;93.30
49777;DHT22;35673;51.482;7.436;2023-04-24T15:34:39;10.30;95.10
49777;DHT22;35673;51.482;7.436;2023-04-24T15:37:04;10.40;95.30
49777;DHT22;35673;51.482;7.436;2023-04-24T15:39:30;11.20;96.40
49777;DHT22;35673;51.482;7.436;2023-04-24T15:41:56;12.70;93.60
49777;DHT22;35673;51.482;7.436;2023-04-24T15:44:22;16.70;83.30
49777;DHT22;35673;51.482;7.436;2023-04-24T15:46:47;18.70;74.30